Time;durP1;ratioP1;P1;durP2;ratioP2;P2;SDS_P1;SDS_P2;PMS_P1;PMS_P2;Temp;Humidity;BMP_temperature;BMP_pressure;BME280_temperature;BME280_humidity;BME280_pressure;Samples;Min_cycle;Max_cycle;Signal;HPM_P1;HPM_P2
2023/05/14 00:00:42;;;;;;;2.47;2.03;;;16.40;49.90;;;;;;4996206;28;20186;-72
2023/05/14 00:03:08;;;;;;;2.27;2.07;;;16.40;50.10;;;;;;4990979;28;20269;-70
2023/05/14 00:05:34;;;;;;;2.17;2.00;;;16.40;50.30;;;;;;5003124;28;20672;-70
2023/05/14 00:07:59;;;;;;;3.00;2.20;;;16.20;49.90;;;;;;4995072;28;20210;-70
2023/05/14 00:10:26;;;;;;;2.57;2.20;;;16.10;51.20;;;;;;4994900;28;20192;-70
2023/05/14 00:12:52;;;;;;;2.43;1.90;;;16.10;51.50;;;;;;5001087;28;20199;-70
2023/05/14 00:15:18;;;;;;;2.60;2.10;;;16.30;52.20;;;;;;4995245;28;20453;-70
2023/05/14 00:17:44;;;;;;;2.53;2.30;;;16.10;51.50;;;;;;4994654;28;20485;-70
2023/05/14 00:20:11;;;;;;;2.20;1.93;;;16.40;52.10;;;;;;4994867;28;20296;-71
2023/05/14 00:22:38;;;;;;;3.57;2.80;;;16.20;51.90;;;;;;4997541;28;20175;-70
2023/05/14 00:25:05;;;;;;;1.77;1.70;;;16.20;51.30;;;;;;4995267;28;20529;-70
2023/05/14 00:27:31;;;;;;;2.30;2.03;;;16.30;50.20;;;;;;4994708;28;20517;-70
2023/05/14 00:29:56;;;;;;;1.80;1.67;;;16.30;50.60;;;;;;4990677;28;21262;-70
2023/05/14 00:32:23;;;;;;;2.20;1.97;;;16.20;49.90;;;;;;4997541;28;20255;-70
2023/05/14 00:34:48;;;;;;;2.50;2.30;;;16.30;50.00;;;;;;4993564;28;20247;-70
2023/05/14 00:37:14;;;;;;;1.60;1.60;;;16.20;51.80;;;;;;4994526;28;20425;-70
2023/05/14 00:39:39;;;;;;;2.10;1.90;;;16.20;51.30;;;;;;4995397;28;20189;-72
2023/05/14 00:42:05;;;;;;;22.40;3.93;;;16.10;51.20;;;;;;4998648;28;20207;-70
2023/05/14 00:44:31;;;;;;;2.20;1.83;;;16.10;51.50;;;;;;4998340;28;20629;-70
2023/05/14 00:46:58;;;;;;;2.50;2.00;;;16.10;51.90;;;;;;5000388;28;20974;-70
2023/05/14 00:49:24;;;;;;;2.60;2.40;;;16.10;51.50;;;;;;4993462;28;20203;-70
2023/05/14 00:51:50;;;;;;;2.93;2.43;;;16.20;51.40;;;;;;4998755;28;20454;-71
2023/05/14 00:54:16;;;;;;;2.20;1.90;;;16.30;50.70;;;;;;4992638;28;20437;-70
2023/05/14 00:56:46;;;;;;;2.43;2.07;;;16.10;51.00;;;;;;4997184;28;20203;-70
2023/05/14 00:59:12;;;;;;;2.67;2.50;;;16.20;51.20;;;;;;5007287;28;20434;-69
2023/05/14 01:01:38;;;;;;;2.70;2.33;;;16.20;51.30;;;;;;4993905;28;20508;-70
2023/05/14 01:04:05;;;;;;;2.90;2.53;;;16.20;51.70;;;;;;4994249;28;20531;-70
2023/05/14 01:06:42;;;;;;;14.53;2.53;;;16.20;50.10;;;;;;4993920;28;20187;-70
2023/05/14 01:09:43;;;;;;;2.13;1.97;;;16.20;50.70;;;;;;4994087;28;20398;-70
2023/05/14 01:12:35;;;;;;;1.80;1.50;;;16.30;51.00;;;;;;4928920;29;20514;-70
2023/05/14 01:15:12;;;;;;;3.20;2.40;;;16.20;51.50;;;;;;4920362;29;21085;-72
2023/05/14 01:17:44;;;;;;;3.00;2.73;;;16.30;52.00;;;;;;4941470;29;20834;-70
2023/05/14 01:20:11;;;;;;;3.03;2.03;;;16.20;50.20;;;;;;4933703;29;20402;-72
2023/05/14 01:22:37;;;;;;;5.80;3.03;;;16.20;50.40;;;;;;4925713;29;20441;-73
2023/05/14 01:25:03;;;;;;;2.67;2.47;;;16.30;50.60;;;;;;4931167;29;20468;-69
2023/05/14 01:27:39;;;;;;;1.83;1.77;;;16.40;49.10;;;;;;4941126;29;20215;-70
2023/05/14 01:30:34;;;;;;;2.67;2.20;;;16.50;48.90;;;;;;4932612;29;20413;-70
2023/05/14 01:33:05;;;;;;;1.97;1.90;;;16.40;49.70;;;;;;4922337;29;20951;-70
2023/05/14 01:35:31;;;;;;;1.93;1.70;;;16.40;48.70;;;;;;4929331;29;20994;-70
2023/05/14 01:37:59;;;;;;;2.77;2.27;;;16.30;50.40;;;;;;4946311;29;20530;-70
2023/05/14 01:40:26;;;;;;;1.70;1.67;;;16.20;50.40;;;;;;4952426;29;20580;-72
2023/05/14 01:42:52;;;;;;;4.80;3.40;;;16.10;50.10;;;;;;4939627;29;20477;-70
2023/05/14 01:45:23;;;;;;;2.50;2.20;;;16.10;49.50;;;;;;4928399;29;21036;-70
2023/05/14 01:47:49;;;;;;;2.80;1.90;;;16.00;49.90;;;;;;4966910;28;20992;-70
2023/05/14 01:50:15;;;;;;;2.00;1.73;;;16.00;50.40;;;;;;5000643;28;20472;-70
2023/05/14 01:52:41;;;;;;;3.43;2.80;;;15.90;51.30;;;;;;4992737;28;21151;-70
2023/05/14 01:55:07;;;;;;;1.70;1.57;;;15.90;51.80;;;;;;4996514;28;20463;-69
2023/05/14 01:57:33;;;;;;;2.73;2.30;;;15.90;51.30;;;;;;5000477;28;20218;-70
2023/05/14 02:00:00;;;;;;;2.40;2.00;;;15.90;51.20;;;;;;4993200;28;20460;-71
2023/05/14 02:02:25;;;;;;;2.27;2.03;;;16.00;51.30;;;;;;4993658;28;20442;-70
2023/05/14 02:04:51;;;;;;;3.90;2.70;;;15.90;50.80;;;;;;4996636;28;20186;-69
2023/05/14 02:07:17;;;;;;;1.83;1.73;;;15.80;51.00;;;;;;4989969;28;20213;-72
2023/05/14 02:09:42;;;;;;;2.73;2.10;;;15.80;50.40;;;;;;4992935;28;20502;-70
2023/05/14 02:12:09;;;;;;;1.90;1.70;;;15.90;51.40;;;;;;4975592;28;20289;-71
2023/05/14 02:14:35;;;;;;;2.50;2.37;;;16.00;51.20;;;;;;4998686;28;20697;-69
2023/05/14 02:17:02;;;;;;;2.47;2.10;;;16.10;50.20;;;;;;4993270;28;20544;-69
2023/05/14 02:19:27;;;;;;;2.10;1.80;;;16.10;50.20;;;;;;4992753;28;20186;-70
2023/05/14 02:21:53;;;;;;;2.13;1.83;;;16.10;49.40;;;;;;4996895;28;20451;-70
2023/05/14 02:24:19;;;;;;;2.00;1.87;;;16.10;50.70;;;;;;5000577;28;20186;-70
2023/05/14 02:26:44;;;;;;;8.17;2.73;;;16.40;51.50;;;;;;4976414;28;20207;-69
2023/05/14 02:29:10;;;;;;;2.07;1.90;;;16.10;51.60;;;;;;4993561;28;20189;-73
2023/05/14 02:31:36;;;;;;;3.27;2.10;;;16.10;51.40;;;;;;4992637;28;20648;-69
2023/05/14 02:34:02;;;;;;;1.80;1.70;;;16.10;51.40;;;;;;5001073;28;20270;-70
2023/05/14 02:36:28;;;;;;;5.23;2.40;;;16.10;51.00;;;;;;5003448;28;20251;-70
2023/05/14 02:38:54;;;;;;;2.30;2.10;;;16.10;51.80;;;;;;5004672;28;20522;-69
2023/05/14 02:41:20;;;;;;;2.50;2.33;;;16.10;51.20;;;;;;4993483;28;20178;-70
2023/05/14 02:43:45;;;;;;;2.23;2.07;;;16.10;52.50;;;;;;5003382;28;20188;-70
2023/05/14 02:46:11;;;;;;;2.53;2.40;;;16.10;51.20;;;;;;4996062;28;20434;-70
2023/05/14 02:48:37;;;;;;;3.60;2.10;;;16.20;51.40;;;;;;4991610;28;20617;-73
2023/05/14 02:51:02;;;;;;;2.47;2.30;;;16.40;50.10;;;;;;4992799;28;20195;-70
2023/05/14 02:53:28;;;;;;;2.47;1.90;;;16.40;51.90;;;;;;4991087;28;20186;-69
2023/05/14 02:55:53;;;;;;;2.03;1.93;;;16.30;50.60;;;;;;4991908;28;20228;-69
2023/05/14 02:58:19;;;;;;;2.53;2.00;;;16.30;51.50;;;;;;4991801;28;20210;-71
2023/05/14 03:00:44;;;;;;;3.37;2.03;;;16.30;51.40;;;;;;4993222;28;20227;-70
2023/05/14 03:03:10;;;;;;;3.20;2.40;;;16.20;51.70;;;;;;4990484;28;20258;-71
2023/05/14 03:05:36;;;;;;;2.30;2.10;;;16.20;50.60;;;;;;4990228;28;20180;-70
2023/05/14 03:08:01;;;;;;;2.33;1.67;;;16.20;52.50;;;;;;4991893;28;20766;-70
2023/05/14 03:10:27;;;;;;;2.07;1.93;;;16.10;52.60;;;;;;4993311;28;20184;-72
2023/05/14 03:12:53;;;;;;;2.63;2.47;;;16.30;52.00;;;;;;4997188;28;20689;-72
2023/05/14 03:15:18;;;;;;;2.63;2.23;;;16.20;51.00;;;;;;5000028;28;20278;-69
2023/05/14 03:17:44;;;;;;;2.30;2.10;;;16.20;50.50;;;;;;4991597;28;20201;-72
2023/05/14 03:20:11;;;;;;;1.80;1.70;;;16.30;51.40;;;;;;4993018;28;20186;-70
2023/05/14 03:22:36;;;;;;;3.17;2.87;;;16.30;51.20;;;;;;4993609;28;20180;-70
2023/05/14 03:25:02;;;;;;;1.80;1.70;;;16.40;51.20;;;;;;4999913;28;20442;-70
2023/05/14 03:27:28;;;;;;;2.23;2.03;;;16.40;50.60;;;;;;4997357;28;20257;-71
2023/05/14 03:29:53;;;;;;;2.27;1.97;;;16.30;51.20;;;;;;4991865;28;20501;-70
2023/05/14 03:32:20;;;;;;;3.33;1.47;;;16.30;50.60;;;;;;4991335;28;20839;-70
2023/05/14 03:34:45;;;;;;;24.23;2.30;;;16.40;51.00;;;;;;4994565;28;20701;-70
2023/05/14 03:37:11;;;;;;;58.40;39.70;;;16.40;51.40;;;;;;5003176;28;20500;-70
2023/05/14 03:39:37;;;;;;;3.23;2.33;;;16.30;50.60;;;;;;5008926;28;20655;-74
2023/05/14 03:42:02;;;;;;;18.53;2.60;;;16.10;51.80;;;;;;4991196;28;20186;-70
2023/05/14 03:44:28;;;;;;;36.70;2.20;;;15.60;53.80;;;;;;5008617;28;20245;-72
2023/05/14 03:46:54;;;;;;;122.40;48.87;;;15.20;56.50;;;;;;5011239;28;20200;-70
2023/05/14 03:49:20;;;;;;;2.90;2.03;;;14.50;60.10;;;;;;5011303;28;20181;-69
2023/05/14 03:51:45;;;;;;;290.07;165.83;;;14.10;65.90;;;;;;4996148;28;20428;-70
2023/05/14 03:54:11;;;;;;;3.40;2.50;;;14.40;64.90;;;;;;4990618;28;20260;-69
2023/05/14 03:56:37;;;;;;;2.90;1.87;;;14.50;62.60;;;;;;5001845;28;20223;-73
2023/05/14 03:59:02;;;;;;;2.47;1.90;;;14.60;63.30;;;;;;5011172;28;20179;-70
2023/05/14 04:01:28;;;;;;;2.23;1.80;;;14.50;62.80;;;;;;5002441;28;20188;-70
2023/05/14 04:03:54;;;;;;;2.93;2.50;;;14.70;61.50;;;;;;4990696;28;20662;-70
2023/05/14 04:06:19;;;;;;;2.20;1.90;;;14.90;61.00;;;;;;4991626;28;20286;-70
2023/05/14 04:08:45;;;;;;;2.77;2.20;;;15.20;59.80;;;;;;4991491;28;20532;-72
2023/05/14 04:11:10;;;;;;;2.80;1.97;;;15.40;58.10;;;;;;4998025;28;20193;-72
2023/05/14 04:13:36;;;;;;;3.17;2.10;;;15.30;57.50;;;;;;4994399;28;20224;-69
2023/05/14 04:16:01;;;;;;;5.70;2.07;;;15.50;56.50;;;;;;5013061;28;20209;-70
2023/05/14 04:18:27;;;;;;;32.37;4.57;;;15.50;55.00;;;;;;5014734;28;20195;-72
2023/05/14 04:20:53;;;;;;;2.50;1.87;;;15.00;58.40;;;;;;5000264;28;20207;-72
2023/05/14 04:23:19;;;;;;;3.03;1.90;;;14.90;59.20;;;;;;4996648;28;20179;-70
2023/05/14 04:25:45;;;;;;;3.00;2.37;;;15.10;58.30;;;;;;4994726;28;20251;-73
2023/05/14 04:28:10;;;;;;;3.40;2.40;;;15.60;56.60;;;;;;4994626;28;20571;-70
2023/05/14 04:30:36;;;;;;;2.10;1.93;;;15.30;56.20;;;;;;4994326;28;20586;-70
2023/05/14 04:33:01;;;;;;;2.20;2.10;;;15.50;56.00;;;;;;4995020;28;20187;-71
2023/05/14 04:35:27;;;;;;;4.97;2.60;;;15.40;57.20;;;;;;4996404;28;20324;-70
2023/05/14 04:37:53;;;;;;;2.10;1.90;;;15.80;55.40;;;;;;4994688;28;20835;-72
2023/05/14 04:40:18;;;;;;;2.70;2.40;;;16.00;53.60;;;;;;4994009;28;20172;-70
2023/05/14 04:42:44;;;;;;;4.40;3.30;;;16.10;54.00;;;;;;4993806;28;20188;-70
2023/05/14 04:45:12;;;;;;;2.87;2.20;;;16.30;53.50;;;;;;4995477;28;20202;-72
2023/05/14 04:47:37;;;;;;;5.20;2.63;;;16.00;54.10;;;;;;4998523;28;20202;-75
2023/05/14 04:50:04;;;;;;;15.20;1.87;;;16.00;54.10;;;;;;4993769;28;20802;-74
2023/05/14 04:52:29;;;;;;;12.63;2.53;;;16.10;53.80;;;;;;5002136;28;20184;-74
2023/05/14 04:54:55;;;;;;;2.30;1.80;;;16.30;53.70;;;;;;4996312;28;20475;-70
2023/05/14 04:57:21;;;;;;;1.90;1.70;;;16.30;53.50;;;;;;4990924;28;20218;-70
2023/05/14 04:59:46;;;;;;;3.93;2.60;;;16.40;52.10;;;;;;4994195;28;20435;-70
2023/05/14 05:02:12;;;;;;;3.13;2.40;;;16.50;52.60;;;;;;4996945;28;20184;-72
2023/05/14 05:04:38;;;;;;;6.30;2.30;;;16.60;51.70;;;;;;5001144;28;20228;-70
2023/05/14 05:07:04;;;;;;;2.13;1.97;;;16.60;53.00;;;;;;4996656;28;20212;-70
2023/05/14 05:09:30;;;;;;;4.30;2.90;;;16.60;51.70;;;;;;5009465;28;20228;-70
2023/05/14 05:11:56;;;;;;;3.43;2.40;;;16.70;52.30;;;;;;4999178;28;20439;-70
2023/05/14 05:14:21;;;;;;;3.60;2.65;;;16.80;51.00;;;;;;4995801;28;20977;-70
2023/05/14 05:16:47;;;;;;;3.07;2.17;;;16.80;50.30;;;;;;4993705;28;20240;-70
2023/05/14 05:19:12;;;;;;;3.80;2.63;;;16.90;49.80;;;;;;4999899;28;20196;-71
2023/05/14 05:21:39;;;;;;;2.83;2.70;;;16.80;50.00;;;;;;5000380;28;20235;-70
2023/05/14 05:24:06;;;;;;;2.37;2.20;;;16.90;49.30;;;;;;5004620;28;20192;-70
2023/05/14 05:26:31;;;;;;;2.87;2.17;;;16.70;49.70;;;;;;5012649;28;20403;-70
2023/05/14 05:28:57;;;;;;;2.60;2.40;;;16.70;50.40;;;;;;4999315;28;20498;-70
2023/05/14 05:31:23;;;;;;;2.50;2.10;;;16.60;50.60;;;;;;4992891;28;20699;-73
2023/05/14 05:33:48;;;;;;;1.80;1.73;;;16.70;51.00;;;;;;4991951;28;20224;-70
2023/05/14 05:36:14;;;;;;;2.53;2.37;;;16.60;51.20;;;;;;4992837;28;20256;-70
2023/05/14 05:38:39;;;;;;;2.63;2.20;;;16.50;49.70;;;;;;4993052;28;20208;-70
2023/05/14 05:41:05;;;;;;;2.40;2.10;;;16.40;50.80;;;;;;4994693;28;20216;-71
2023/05/14 05:43:32;;;;;;;2.57;2.30;;;16.50;51.50;;;;;;4993214;28;20182;-70
2023/05/14 05:45:59;;;;;;;3.37;2.40;;;16.60;51.20;;;;;;5001156;28;20181;-70
2023/05/14 05:48:24;;;;;;;2.20;1.90;;;16.70;51.40;;;;;;4993520;28;20470;-70
2023/05/14 05:50:50;;;;;;;2.00;1.80;;;16.70;51.00;;;;;;4992683;28;20480;-70
2023/05/14 05:53:16;;;;;;;2.57;2.10;;;16.60;51.80;;;;;;4996063;28;20204;-70
2023/05/14 05:55:41;;;;;;;2.50;2.33;;;16.40;51.70;;;;;;4992553;28;20325;-71
2023/05/14 05:58:07;;;;;;;2.27;1.87;;;16.40;52.80;;;;;;4993085;28;20444;-75
2023/05/14 06:00:33;;;;;;;2.20;1.97;;;16.60;52.10;;;;;;4993814;28;20176;-73
2023/05/14 06:02:59;;;;;;;1.83;1.63;;;16.60;51.70;;;;;;4992724;28;20643;-73
2023/05/14 06:05:25;;;;;;;4.73;4.43;;;16.50;51.80;;;;;;4977683;28;20189;-75
2023/05/14 06:07:52;;;;;;;1.87;1.80;;;16.40;52.30;;;;;;4990661;28;20820;-75
2023/05/14 06:10:18;;;;;;;3.30;2.83;;;16.50;52.90;;;;;;4993780;28;20437;-75
2023/05/14 06:12:43;;;;;;;3.47;3.00;;;16.60;51.70;;;;;;4990310;28;20460;-75
2023/05/14 06:15:10;;;;;;;4.87;2.77;;;16.60;51.10;;;;;;4997867;28;20467;-75
2023/05/14 06:17:36;;;;;;;3.00;2.23;;;16.30;53.30;;;;;;4978293;28;20202;-75
2023/05/14 06:20:04;;;;;;;2.73;2.00;;;16.60;54.10;;;;;;4992070;28;20483;-70
2023/05/14 06:22:30;;;;;;;3.17;2.23;;;16.80;51.80;;;;;;4995861;28;20772;-70
2023/05/14 06:24:55;;;;;;;1.90;1.80;;;16.70;51.40;;;;;;4992353;28;20432;-70
2023/05/14 06:27:21;;;;;;;2.93;2.10;;;16.80;50.90;;;;;;4992511;28;20201;-69
2023/05/14 06:29:47;;;;;;;3.63;2.33;;;16.80;51.70;;;;;;4985967;28;20319;-70
2023/05/14 06:32:14;;;;;;;5.27;2.90;;;16.90;50.70;;;;;;4991713;28;20285;-71
2023/05/14 06:34:43;;;;;;;2.20;1.80;;;16.90;50.70;;;;;;4991532;28;20217;-70
2023/05/14 06:37:09;;;;;;;4.67;2.70;;;16.90;50.30;;;;;;4991740;28;20835;-70
2023/05/14 06:39:36;;;;;;;2.03;1.87;;;16.90;51.40;;;;;;4991650;28;20498;-70
2023/05/14 06:42:02;;;;;;;2.90;2.37;;;16.80;50.60;;;;;;4996053;28;20468;-69
2023/05/14 06:44:27;;;;;;;1.93;1.90;;;16.80;49.70;;;;;;4998734;28;20529;-70
2023/05/14 06:46:53;;;;;;;2.10;1.90;;;16.80;50.50;;;;;;4992063;28;20203;-70
2023/05/14 06:49:19;;;;;;;2.80;2.50;;;17.00;49.80;;;;;;4992030;28;20239;-71
2023/05/14 06:51:44;;;;;;;3.60;2.40;;;16.90;50.00;;;;;;5003577;28;20195;-69
2023/05/14 06:54:10;;;;;;;2.23;2.00;;;16.80;50.90;;;;;;4996127;28;20268;-69
2023/05/14 06:56:36;;;;;;;2.70;2.33;;;16.90;50.20;;;;;;4991638;28;20221;-69
2023/05/14 06:59:01;;;;;;;2.90;2.37;;;16.90;50.70;;;;;;4984905;28;20436;-70
2023/05/14 07:01:27;;;;;;;2.43;1.60;;;16.90;50.40;;;;;;4983506;28;20708;-72
2023/05/14 07:03:53;;;;;;;4.07;2.90;;;16.90;50.40;;;;;;4998289;28;20212;-72
2023/05/14 07:06:18;;;;;;;1.80;1.60;;;16.80;51.40;;;;;;4991304;28;20234;-70
2023/05/14 07:08:47;;;;;;;2.63;2.43;;;16.90;50.30;;;;;;4998278;28;20232;-70
2023/05/14 07:11:13;;;;;;;2.60;2.40;;;17.10;50.00;;;;;;4994007;28;20493;-69
2023/05/14 07:13:39;;;;;;;1.83;1.67;;;17.10;49.40;;;;;;4991194;28;20464;-69
2023/05/14 07:16:06;;;;;;;12.80;1.87;;;16.90;49.50;;;;;;4992739;28;20466;-70
2023/05/14 07:18:32;;;;;;;2.23;2.07;;;17.00;50.50;;;;;;4999535;28;20526;-70
2023/05/14 07:20:57;;;;;;;19.17;2.30;;;17.10;50.40;;;;;;4994469;28;20601;-70
2023/05/14 07:23:23;;;;;;;29.90;2.20;;;17.10;49.50;;;;;;5005230;28;20173;-69
2023/05/14 07:25:48;;;;;;;25.00;1.90;;;17.20;48.20;;;;;;4991328;28;20194;-70
2023/05/14 07:28:14;;;;;;;21.90;2.43;;;17.20;49.60;;;;;;4991720;28;20186;-70
2023/05/14 07:30:40;;;;;;;24.77;2.20;;;17.10;48.50;;;;;;4992642;28;20181;-69
2023/05/14 07:33:05;;;;;;;24.73;2.10;;;16.40;50.10;;;;;;4990339;28;20189;-69
2023/05/14 07:35:31;;;;;;;29.13;2.10;;;15.90;54.10;;;;;;4992763;28;20256;-69
2023/05/14 07:37:57;;;;;;;28.53;2.33;;;16.40;53.00;;;;;;4991569;28;20202;-69
2023/05/14 07:40:23;;;;;;;31.53;3.07;;;16.80;52.20;;;;;;4995750;28;20559;-74
2023/05/14 07:42:49;;;;;;;7.27;2.70;;;17.10;50.00;;;;;;5001737;28;20184;-69
2023/05/14 07:45:15;;;;;;;32.00;3.23;;;17.30;50.50;;;;;;5000700;28;20441;-70
2023/05/14 07:47:41;;;;;;;32.87;3.30;;;17.50;50.20;;;;;;4990505;28;20197;-70
2023/05/14 07:50:07;;;;;;;39.63;3.40;;;17.70;49.50;;;;;;4992799;28;20181;-71
2023/05/14 07:52:32;;;;;;;30.80;2.90;;;17.70;50.40;;;;;;4999548;28;20213;-73
2023/05/14 07:55:00;;;;;;;32.60;3.03;;;17.90;47.70;;;;;;4980675;28;20502;-73
2023/05/14 07:57:25;;;;;;;34.50;2.80;;;18.00;47.70;;;;;;4995745;28;20213;-70
2023/05/14 07:59:51;;;;;;;34.90;2.83;;;18.30;47.50;;;;;;4994937;28;20808;-76
2023/05/14 08:02:17;;;;;;;28.30;2.70;;;18.30;47.30;;;;;;4999158;28;20182;-75
2023/05/14 08:04:42;;;;;;;30.20;2.60;;;18.20;46.80;;;;;;4994317;28;20585;-74
2023/05/14 08:07:08;;;;;;;21.70;2.20;;;18.30;46.20;;;;;;4994179;28;20679;-73
2023/05/14 08:09:34;;;;;;;42.83;2.27;;;18.30;45.00;;;;;;4994438;28;20180;-72
2023/05/14 08:12:00;;;;;;;47.60;2.50;;;18.00;45.40;;;;;;4995169;28;20435;-71
2023/05/14 08:14:26;;;;;;;47.27;2.50;;;17.30;45.80;;;;;;5003691;28;20182;-73
2023/05/14 08:16:51;;;;;;;28.33;2.47;;;17.60;48.70;;;;;;5014863;28;20192;-72
2023/05/14 08:19:18;;;;;;;50.60;3.27;;;18.00;48.00;;;;;;4999142;28;20241;-71
2023/05/14 08:21:43;;;;;;;48.37;2.67;;;18.30;45.20;;;;;;4976987;28;20266;-72
2023/05/14 08:24:09;;;;;;;48.27;2.90;;;17.70;46.80;;;;;;4994847;28;20529;-70
2023/05/14 08:26:34;;;;;;;49.40;2.10;;;18.10;45.90;;;;;;5002086;28;20189;-70
2023/05/14 08:29:00;;;;;;;51.17;3.20;;;18.10;45.80;;;;;;4995346;28;20179;-70
2023/05/14 08:31:25;;;;;;;47.40;2.43;;;18.40;46.80;;;;;;4997634;28;20182;-73
2023/05/14 08:33:51;;;;;;;46.40;2.43;;;18.60;45.90;;;;;;4997833;28;20186;-73
2023/05/14 08:36:17;;;;;;;47.10;3.07;;;18.70;45.70;;;;;;4996992;28;20209;-71
2023/05/14 08:38:44;;;;;;;46.40;2.60;;;18.10;44.70;;;;;;5003763;28;20204;-70
2023/05/14 08:41:11;;;;;;;45.70;2.93;;;17.70;46.30;;;;;;4981521;28;20776;-69
2023/05/14 08:43:50;;;;;;;30.20;2.23;;;17.90;49.60;;;;;;4998710;28;20441;-72
2023/05/14 08:46:16;;;;;;;2.67;1.90;;;17.80;47.60;;;;;;4992870;28;20528;-74
2023/05/14 08:48:46;;;;;;;2.77;2.07;;;17.40;49.40;;;;;;4993325;28;20512;-77
2023/05/14 08:51:11;;;;;;;2.40;2.00;;;17.20;51.20;;;;;;5004966;28;20436;-73
2023/05/14 08:53:39;;;;;;;2.93;2.20;;;18.00;49.90;;;;;;4991607;28;20925;-70
2023/05/14 08:56:06;;;;;;;2.37;2.10;;;17.90;47.10;;;;;;4997323;28;20695;-69
2023/05/14 08:58:32;;;;;;;2.30;2.10;;;18.60;46.80;;;;;;4994383;28;20561;-72
2023/05/14 09:00:58;;;;;;;2.50;2.00;;;19.30;44.50;;;;;;4993440;28;20521;-75
2023/05/14 09:03:24;;;;;;;3.00;2.20;;;18.50;42.60;;;;;;4991232;28;20191;-70
2023/05/14 09:05:50;;;;;;;3.87;2.80;;;17.90;46.50;;;;;;4991590;28;21641;-74
2023/05/14 09:08:16;;;;;;;2.37;1.90;;;18.30;46.70;;;;;;4994529;28;20498;-69
2023/05/14 09:10:42;;;;;;;2.23;1.90;;;18.50;45.10;;;;;;4993421;28;20489;-71
2023/05/14 09:13:08;;;;;;;5.80;2.77;;;18.40;43.10;;;;;;4987966;28;20712;-69
2023/05/14 09:15:37;;;;;;;2.17;1.97;;;17.70;46.80;;;;;;4996432;28;20207;-69
2023/05/14 09:18:06;;;;;;;3.73;2.73;;;17.90;45.60;;;;;;4986920;28;20690;-70
2023/05/14 09:20:32;;;;;;;2.17;1.87;;;17.70;44.90;;;;;;5004018;28;20439;-70
2023/05/14 09:23:01;;;;;;;3.57;2.33;;;18.00;45.90;;;;;;4995270;28;20440;-69
2023/05/14 09:25:29;;;;;;;3.40;2.27;;;17.50;45.50;;;;;;5009604;28;20476;-69
2023/05/14 09:27:57;;;;;;;2.37;2.20;;;18.00;45.40;;;;;;4992840;28;20544;-73
2023/05/14 09:30:24;;;;;;;2.80;2.00;;;18.70;45.00;;;;;;5002671;28;20443;-70
2023/05/14 09:32:52;;;;;;;2.43;2.00;;;19.20;40.90;;;;;;4998428;28;20920;-70
2023/05/14 09:35:21;;;;;;;2.90;2.33;;;18.60;41.40;;;;;;4999616;28;20474;-70
2023/05/14 09:37:48;;;;;;;2.70;2.07;;;18.20;43.60;;;;;;4997212;28;20946;-69
2023/05/14 09:40:15;;;;;;;2.77;2.60;;;17.80;44.50;;;;;;4975944;28;20455;-69
2023/05/14 09:42:41;;;;;;;2.90;2.73;;;17.60;44.70;;;;;;5009884;28;20418;-69
2023/05/14 09:45:08;;;;;;;3.10;2.37;;;18.30;45.30;;;;;;5004551;28;20434;-69
2023/05/14 09:47:34;;;;;;;2.13;2.00;;;18.20;43.80;;;;;;4993628;28;20340;-70
2023/05/14 09:50:00;;;;;;;2.43;2.20;;;18.50;44.70;;;;;;4991859;28;20466;-70
2023/05/14 09:52:26;;;;;;;1.93;1.90;;;18.90;43.50;;;;;;4973795;28;20858;-69
2023/05/14 09:54:52;;;;;;;2.90;2.30;;;19.50;43.20;;;;;;4991695;28;20211;-72
2023/05/14 09:57:18;;;;;;;2.43;2.27;;;20.10;40.90;;;;;;5000925;28;20510;-69
2023/05/14 09:59:44;;;;;;;2.10;1.93;;;20.00;40.50;;;;;;4992885;28;20408;-73
2023/05/14 10:02:36;;;;;;;1.90;1.80;;;20.10;38.60;;;;;;5000523;28;20438;-70
2023/05/14 10:05:04;;;;;;;3.67;2.47;;;20.40;38.90;;;;;;4992143;28;20613;-71
2023/05/14 10:07:41;;;;;;;2.50;2.00;;;20.50;37.90;;;;;;4994082;28;20453;-72
2023/05/14 10:10:10;;;;;;;2.77;2.20;;;20.60;38.20;;;;;;4979623;28;20481;-70
2023/05/14 10:12:38;;;;;;;2.37;2.13;;;20.30;38.30;;;;;;5000406;28;20527;-69
2023/05/14 10:15:13;;;;;;;2.47;1.80;;;20.40;36.90;;;;;;4991804;28;20464;-71
2023/05/14 10:17:43;;;;;;;2.33;2.20;;;20.40;36.60;;;;;;4992715;28;20532;-71
2023/05/14 10:20:13;;;;;;;6.30;2.20;;;20.70;37.30;;;;;;4994795;28;20792;-72
2023/05/14 10:22:39;;;;;;;2.83;2.70;;;20.90;36.90;;;;;;5001341;28;20431;-73
2023/05/14 10:25:05;;;;;;;2.63;2.17;;;20.20;34.80;;;;;;4990924;28;20429;-72
2023/05/14 10:27:31;;;;;;;2.93;2.40;;;19.70;38.60;;;;;;4994113;28;20246;-70
2023/05/14 10:29:57;;;;;;;2.60;2.27;;;19.60;38.20;;;;;;4997080;28;20476;-71
2023/05/14 10:32:24;;;;;;;2.53;2.43;;;20.20;37.20;;;;;;5001894;28;20190;-70
2023/05/14 10:34:51;;;;;;;3.03;2.20;;;20.60;34.60;;;;;;5003088;28;20278;-70
2023/05/14 10:37:22;;;;;;;2.37;2.20;;;21.10;35.80;;;;;;4990128;28;20452;-74
2023/05/14 10:39:53;;;;;;;3.50;2.53;;;21.00;32.80;;;;;;4996361;28;20509;-73
2023/05/14 10:42:23;;;;;;;4.20;2.30;;;21.50;34.40;;;;;;4987237;28;20503;-70
2023/05/14 10:44:56;;;;;;;4.23;3.93;;;21.90;35.10;;;;;;4989007;28;20433;-70
2023/05/14 10:47:23;;;;;;;2.43;1.93;;;21.90;33.90;;;;;;4994194;28;20437;-70
2023/05/14 10:49:53;;;;;;;2.50;2.00;;;21.60;32.90;;;;;;4991860;28;20914;-70
2023/05/14 10:52:20;;;;;;;2.83;2.03;;;21.80;33.80;;;;;;4992116;28;20389;-69
2023/05/14 10:54:59;;;;;;;2.20;1.90;;;21.70;33.30;;;;;;4989930;28;21006;-72
2023/05/14 10:57:30;;;;;;;2.50;1.83;;;21.40;32.20;;;;;;4990891;28;20464;-70
2023/05/14 10:59:58;;;;;;;2.80;2.20;;;21.30;32.50;;;;;;4977451;28;20425;-69
2023/05/14 11:02:25;;;;;;;2.70;2.10;;;21.40;33.00;;;;;;4972298;28;20465;-70
2023/05/14 11:04:56;;;;;;;3.00;2.20;;;21.60;30.50;;;;;;4988474;28;20438;-69
2023/05/14 11:07:28;;;;;;;3.27;2.30;;;21.20;33.30;;;;;;4993751;28;20499;-70
2023/05/14 11:10:00;;;;;;;3.13;2.20;;;22.10;31.10;;;;;;5003990;28;20445;-69
2023/05/14 11:12:27;;;;;;;2.63;1.90;;;22.10;30.70;;;;;;5000429;28;20452;-69
2023/05/14 11:14:55;;;;;;;2.93;1.70;;;22.60;29.50;;;;;;4995481;28;20528;-69
2023/05/14 11:17:21;;;;;;;2.73;1.80;;;21.70;30.20;;;;;;5000306;28;20841;-69
2023/05/14 11:19:46;;;;;;;2.83;2.07;;;21.50;31.00;;;;;;5000349;28;20533;-69
2023/05/14 11:22:13;;;;;;;3.57;1.90;;;21.70;31.50;;;;;;4996240;28;20206;-71
2023/05/14 11:24:39;;;;;;;3.30;2.20;;;22.20;31.80;;;;;;4998061;28;20193;-70
2023/05/14 11:27:07;;;;;;;2.93;2.00;;;22.40;30.30;;;;;;4995079;28;20449;-70
2023/05/14 11:29:34;;;;;;;2.83;2.13;;;22.50;30.20;;;;;;4994891;28;20436;-69
2023/05/14 11:32:01;;;;;;;3.00;2.13;;;22.70;29.90;;;;;;5002053;28;20435;-68
2023/05/14 11:34:27;;;;;;;3.10;2.40;;;22.30;29.40;;;;;;4997034;28;20472;-70
2023/05/14 11:36:53;;;;;;;62.53;3.20;;;22.20;31.70;;;;;;5000322;28;20464;-72
2023/05/14 11:39:18;;;;;;;18.13;1.97;;;22.30;30.80;;;;;;5000672;28;20441;-69
2023/05/14 11:41:44;;;;;;;76.03;2.40;;;22.20;31.30;;;;;;5012943;28;20444;-69
2023/05/14 11:44:10;;;;;;;52.90;2.53;;;22.10;31.00;;;;;;5013562;28;20172;-69
2023/05/14 11:46:36;;;;;;;39.07;2.10;;;21.50;31.50;;;;;;4994954;28;20499;-69
2023/05/14 11:49:08;;;;;;;30.87;2.20;;;21.40;30.80;;;;;;4996954;28;20198;-69
2023/05/14 11:51:35;;;;;;;25.40;1.80;;;21.20;33.20;;;;;;5012633;28;20219;-70
2023/05/14 11:54:02;;;;;;;17.43;2.00;;;21.40;32.70;;;;;;5004678;28;20479;-69
2023/05/14 11:56:28;;;;;;;16.03;1.90;;;21.80;31.10;;;;;;4995074;28;20460;-69
2023/05/14 11:58:57;;;;;;;14.30;2.10;;;21.80;31.90;;;;;;5009022;28;20445;-69
2023/05/14 12:01:23;;;;;;;6.57;2.03;;;21.80;31.10;;;;;;4997382;28;20526;-70
2023/05/14 12:03:49;;;;;;;3.60;1.87;;;21.90;30.00;;;;;;4994409;28;20781;-69
2023/05/14 12:06:15;;;;;;;4.57;1.93;;;22.00;29.90;;;;;;4993204;28;20591;-71
2023/05/14 12:08:40;;;;;;;4.00;1.90;;;26.40;33.40;;;;;;4997462;28;20451;-69
2023/05/14 12:11:08;;;;;;;3.53;2.10;;;22.50;29.40;;;;;;4998617;28;20647;-70
2023/05/14 12:13:35;;;;;;;3.00;2.10;;;22.50;28.50;;;;;;5003453;28;20196;-72
2023/05/14 12:16:01;;;;;;;3.50;2.03;;;22.10;28.20;;;;;;5001733;28;20463;-72
2023/05/14 12:18:29;;;;;;;2.80;1.80;;;22.30;28.90;;;;;;5003543;28;20458;-69
2023/05/14 12:20:55;;;;;;;3.20;2.13;;;22.40;29.10;;;;;;4994181;28;20934;-70
2023/05/14 12:23:28;;;;;;;2.83;2.20;;;22.60;29.20;;;;;;4993754;28;20435;-75
2023/05/14 12:25:54;;;;;;;2.43;1.80;;;22.90;28.70;;;;;;4993298;28;20459;-70
2023/05/14 12:28:22;;;;;;;2.70;1.97;;;23.20;28.30;;;;;;4997818;28;20960;-74
2023/05/14 12:30:54;;;;;;;3.70;1.90;;;22.80;27.80;;;;;;4991095;28;20772;-73
2023/05/14 12:33:22;;;;;;;2.43;2.10;;;22.60;27.80;;;;;;5001031;28;20433;-74
2023/05/14 12:35:48;;;;;;;2.30;2.03;;;23.30;27.90;;;;;;4998129;28;20464;-73
2023/05/14 12:38:14;;;;;;;3.10;2.10;;;23.40;28.40;;;;;;5004649;28;20678;-70
2023/05/14 12:40:39;;;;;;;5.10;3.23;;;23.90;27.40;;;;;;5002409;28;20185;-70
2023/05/14 12:43:05;;;;;;;3.10;2.10;;;24.80;27.90;;;;;;5012814;28;20184;-70